Rossville, Illinois
Current Conditions -  °F | °C
As of 10:15 PM on Saturday 25 Oct 2014 (Local Time) from KDNV Reporting Station
Clear Clear  
Wind Chill: 56°   Ceiling: Unl
Heat Index: 56°   Visibility: 10mi
Dew Point: 39°   Wind: 9mph
Humidity: 53%   Direction: 310°NW
Pressure: 29.97"   Gusts: NA
Location:  40.38°N, 87.67°W
Report Text: KDNV 260315Z AUTO 31008KT 10SM CLR 14/04 A2997 RMK AO2 T01350040
Loading
Personal Weather Stations






























Interactive Weather Map
Tropical Storm Tracking
New forecast layout! Learn more

10-Day Weather Forecast

Advertisements
Track Severe Weather on mobile